sensor_id;sensor_type;location;lat;lon;timestamp;pressure;altitude;pressure_sealevel;temperature
18713;BMP280;9485;49.386;8.674;2023-12-20T00:04:51;100552.13;;;6.72
18713;BMP280;9485;49.386;8.674;2023-12-20T00:10:12;100544.47;;;6.72
18713;BMP280;9485;49.386;8.674;2023-12-20T00:15:33;100541.97;;;6.74
18713;BMP280;9485;49.386;8.674;2023-12-20T00:20:54;100538.38;;;6.74
18713;BMP280;9485;49.386;8.674;2023-12-20T00:26:16;100531.53;;;6.75
18713;BMP280;9485;49.386;8.674;2023-12-20T00:31:37;100533.84;;;6.76
18713;BMP280;9485;49.386;8.674;2023-12-20T00:36:57;100534.97;;;6.79
18713;BMP280;9485;49.386;8.674;2023-12-20T00:42:19;100532.31;;;6.84
18713;BMP280;9485;49.386;8.674;2023-12-20T00:47:40;100527.31;;;6.88
18713;BMP280;9485;49.386;8.674;2023-12-20T00:53:01;100522.47;;;6.89
18713;BMP280;9485;49.386;8.674;2023-12-20T00:58:23;100513.13;;;6.83
18713;BMP280;9485;49.386;8.674;2023-12-20T01:03:43;100515.94;;;6.83
18713;BMP280;9485;49.386;8.674;2023-12-20T01:09:03;100521.88;;;6.85
18713;BMP280;9485;49.386;8.674;2023-12-20T01:14:25;100524.19;;;6.86
18713;BMP280;9485;49.386;8.674;2023-12-20T01:19:46;100518.09;;;6.88
18713;BMP280;9485;49.386;8.674;2023-12-20T01:25:07;100515.13;;;6.91
18713;BMP280;9485;49.386;8.674;2023-12-20T01:30:29;100517.34;;;6.96
18713;BMP280;9485;49.386;8.674;2023-12-20T01:35:50;100516.06;;;6.97
18713;BMP280;9485;49.386;8.674;2023-12-20T01:41:10;100504.53;;;6.95
18713;BMP280;9485;49.386;8.674;2023-12-20T01:46:32;100506.56;;;6.95
18713;BMP280;9485;49.386;8.674;2023-12-20T01:51:53;100510.00;;;6.99
18713;BMP280;9485;49.386;8.674;2023-12-20T01:57:15;100512.50;;;7.06
18713;BMP280;9485;49.386;8.674;2023-12-20T02:02:40;100505.16;;;7.08
18713;BMP280;9485;49.386;8.674;2023-12-20T02:08:00;100516.38;;;7.08
18713;BMP280;9485;49.386;8.674;2023-12-20T02:13:21;100509.69;;;7.06
18713;BMP280;9485;49.386;8.674;2023-12-20T02:18:44;100507.47;;;7.01
18713;BMP280;9485;49.386;8.674;2023-12-20T02:24:06;100510.94;;;7.05
18713;BMP280;9485;49.386;8.674;2023-12-20T02:29:27;100506.72;;;7.00
18713;BMP280;9485;49.386;8.674;2023-12-20T02:34:48;100507.03;;;7.02
18713;BMP280;9485;49.386;8.674;2023-12-20T02:40:10;100503.09;;;7.09
18713;BMP280;9485;49.386;8.674;2023-12-20T02:45:30;100518.09;;;7.06
18713;BMP280;9485;49.386;8.674;2023-12-20T02:50:52;100522.31;;;7.10
18713;BMP280;9485;49.386;8.674;2023-12-20T02:56:13;100519.03;;;7.12
18713;BMP280;9485;49.386;8.674;2023-12-20T03:01:35;100507.31;;;7.04
18713;BMP280;9485;49.386;8.674;2023-12-20T03:07:01;100492.06;;;6.96
18713;BMP280;9485;49.386;8.674;2023-12-20T03:12:23;100499.06;;;7.01
18713;BMP280;9485;49.386;8.674;2023-12-20T03:17:44;100509.03;;;7.02
18713;BMP280;9485;49.386;8.674;2023-12-20T03:23:04;100512.66;;;7.02
18713;BMP280;9485;49.386;8.674;2023-12-20T03:28:27;100514.22;;;7.03
18713;BMP280;9485;49.386;8.674;2023-12-20T03:33:48;100527.44;;;7.03
18713;BMP280;9485;49.386;8.674;2023-12-20T03:39:10;100503.59;;;7.07
18713;BMP280;9485;49.386;8.674;2023-12-20T03:44:32;100497.97;;;7.07
18713;BMP280;9485;49.386;8.674;2023-12-20T03:49:53;100510.59;;;7.12
18713;BMP280;9485;49.386;8.674;2023-12-20T03:55:14;100512.94;;;7.13
18713;BMP280;9485;49.386;8.674;2023-12-20T04:00:35;100507.16;;;7.17
18713;BMP280;9485;49.386;8.674;2023-12-20T04:05:56;100499.22;;;7.15
18713;BMP280;9485;49.386;8.674;2023-12-20T04:11:16;100511.69;;;7.14
18713;BMP280;9485;49.386;8.674;2023-12-20T04:16:38;100507.16;;;7.17
18713;BMP280;9485;49.386;8.674;2023-12-20T04:21:59;100513.25;;;7.15
18713;BMP280;9485;49.386;8.674;2023-12-20T04:27:20;100523.53;;;7.18
18713;BMP280;9485;49.386;8.674;2023-12-20T04:32:42;100533.06;;;7.21
18713;BMP280;9485;49.386;8.674;2023-12-20T04:38:02;100535.38;;;7.22
18713;BMP280;9485;49.386;8.674;2023-12-20T04:43:23;100533.69;;;7.16
18713;BMP280;9485;49.386;8.674;2023-12-20T04:48:45;100552.72;;;7.21
18713;BMP280;9485;49.386;8.674;2023-12-20T04:54:06;100554.72;;;7.29
18713;BMP280;9485;49.386;8.674;2023-12-20T04:59:26;100567.03;;;7.32
18713;BMP280;9485;49.386;8.674;2023-12-20T05:04:48;100559.38;;;7.32
18713;BMP280;9485;49.386;8.674;2023-12-20T05:10:09;100550.19;;;7.32
18713;BMP280;9485;49.386;8.674;2023-12-20T05:15:30;100572.34;;;7.39
18713;BMP280;9485;49.386;8.674;2023-12-20T05:20:52;100582.66;;;7.42
18713;BMP280;9485;49.386;8.674;2023-12-20T05:26:12;100594.81;;;7.39
18713;BMP280;9485;49.386;8.674;2023-12-20T05:31:33;100580.91;;;7.44
18713;BMP280;9485;49.386;8.674;2023-12-20T05:36:55;100589.97;;;7.48
18713;BMP280;9485;49.386;8.674;2023-12-20T05:42:15;100587.16;;;7.48
18713;BMP280;9485;49.386;8.674;2023-12-20T05:47:36;100584.19;;;7.51
18713;BMP280;9485;49.386;8.674;2023-12-20T05:52:57;100603.69;;;7.55
18713;BMP280;9485;49.386;8.674;2023-12-20T05:58:18;100621.78;;;7.63
18713;BMP280;9485;49.386;8.674;2023-12-20T06:03:41;100630.81;;;7.67
18713;BMP280;9485;49.386;8.674;2023-12-20T06:09:03;100637.25;;;7.58
18713;BMP280;9485;49.386;8.674;2023-12-20T06:14:23;100653.78;;;7.65
18713;BMP280;9485;49.386;8.674;2023-12-20T06:19:44;100655.19;;;7.70
18713;BMP280;9485;49.386;8.674;2023-12-20T06:25:09;100665.34;;;7.67
18713;BMP280;9485;49.386;8.674;2023-12-20T06:30:29;100664.25;;;7.65
18713;BMP280;9485;49.386;8.674;2023-12-20T06:35:51;100660.03;;;7.60
18713;BMP280;9485;49.386;8.674;2023-12-20T06:41:15;100673.94;;;7.64
18713;BMP280;9485;49.386;8.674;2023-12-20T06:46:36;100683.13;;;7.64
18713;BMP280;9485;49.386;8.674;2023-12-20T06:51:57;100677.22;;;7.62
18713;BMP280;9485;49.386;8.674;2023-12-20T06:57:18;100689.72;;;7.61
18713;BMP280;9485;49.386;8.674;2023-12-20T07:02:39;100681.91;;;7.47
18713;BMP280;9485;49.386;8.674;2023-12-20T07:08:00;100680.31;;;7.29
18713;BMP280;9485;49.386;8.674;2023-12-20T07:13:22;100672.53;;;7.24
18713;BMP280;9485;49.386;8.674;2023-12-20T07:18:42;100672.06;;;7.16
18713;BMP280;9485;49.386;8.674;2023-12-20T07:24:03;100682.53;;;7.07
18713;BMP280;9485;49.386;8.674;2023-12-20T07:29:25;100672.97;;;7.04
18713;BMP280;9485;49.386;8.674;2023-12-20T07:34:46;100681.09;;;6.93
18713;BMP280;9485;49.386;8.674;2023-12-20T07:40:08;100683.72;;;6.88
18713;BMP280;9485;49.386;8.674;2023-12-20T07:45:29;100691.69;;;6.89
18713;BMP280;9485;49.386;8.674;2023-12-20T07:50:50;100695.41;;;6.86
18713;BMP280;9485;49.386;8.674;2023-12-20T07:56:15;100720.06;;;6.91
18713;BMP280;9485;49.386;8.674;2023-12-20T08:01:37;100723.06;;;6.97
18713;BMP280;9485;49.386;8.674;2023-12-20T08:06:58;100728.38;;;7.04
18713;BMP280;9485;49.386;8.674;2023-12-20T08:12:19;100739.28;;;7.02
18713;BMP280;9485;49.386;8.674;2023-12-20T08:17:41;100735.25;;;7.12
18713;BMP280;9485;49.386;8.674;2023-12-20T08:23:02;100739.63;;;7.31
18713;BMP280;9485;49.386;8.674;2023-12-20T08:28:22;100739.03;;;7.53
18713;BMP280;9485;49.386;8.674;2023-12-20T08:33:46;100736.84;;;7.57
18713;BMP280;9485;49.386;8.674;2023-12-20T08:39:06;100740.13;;;7.74
18713;BMP280;9485;49.386;8.674;2023-12-20T08:44:27;100732.94;;;7.82
18713;BMP280;9485;49.386;8.674;2023-12-20T08:49:49;100733.25;;;7.75
18713;BMP280;9485;49.386;8.674;2023-12-20T08:55:09;100759.19;;;7.79
18713;BMP280;9485;49.386;8.674;2023-12-20T09:00:30;100747.63;;;7.77
18713;BMP280;9485;49.386;8.674;2023-12-20T09:05:52;100761.53;;;7.80
18713;BMP280;9485;49.386;8.674;2023-12-20T09:11:13;100766.50;;;7.85
18713;BMP280;9485;49.386;8.674;2023-12-20T09:16:34;100755.25;;;7.85
18713;BMP280;9485;49.386;8.674;2023-12-20T09:21:56;100769.16;;;7.98
18713;BMP280;9485;49.386;8.674;2023-12-20T09:27:16;100769.59;;;8.05
18713;BMP280;9485;49.386;8.674;2023-12-20T09:32:37;100774.78;;;8.16
18713;BMP280;9485;49.386;8.674;2023-12-20T09:37:59;100777.69;;;8.48
18713;BMP280;9485;49.386;8.674;2023-12-20T09:43:20;100771.72;;;8.55
18713;BMP280;9485;49.386;8.674;2023-12-20T09:48:41;100774.84;;;8.57
18713;BMP280;9485;49.386;8.674;2023-12-20T09:54:05;100781.56;;;8.59
18713;BMP280;9485;49.386;8.674;2023-12-20T09:59:25;100779.88;;;8.53
18713;BMP280;9485;49.386;8.674;2023-12-20T10:04:47;100773.44;;;8.61
18713;BMP280;9485;49.386;8.674;2023-12-20T10:10:12;100771.38;;;8.62
18713;BMP280;9485;49.386;8.674;2023-12-20T10:15:33;100770.59;;;8.61
18713;BMP280;9485;49.386;8.674;2023-12-20T10:20:55;100782.44;;;8.74
18713;BMP280;9485;49.386;8.674;2023-12-20T10:26:21;100773.00;;;8.86
18713;BMP280;9485;49.386;8.674;2023-12-20T10:31:42;100757.31;;;8.94
18713;BMP280;9485;49.386;8.674;2023-12-20T10:37:04;100752.00;;;8.96
18713;BMP280;9485;49.386;8.674;2023-12-20T10:42:26;100742.13;;;9.24
18713;BMP280;9485;49.386;8.674;2023-12-20T10:47:49;100741.44;;;9.29
18713;BMP280;9485;49.386;8.674;2023-12-20T10:53:12;100738.22;;;9.21
18713;BMP280;9485;49.386;8.674;2023-12-20T10:58:38;100730.72;;;9.18
18713;BMP280;9485;49.386;8.674;2023-12-20T11:04:01;100740.78;;;9.10
18713;BMP280;9485;49.386;8.674;2023-12-20T11:09:35;100736.59;;;9.06
18713;BMP280;9485;49.386;8.674;2023-12-20T11:15:00;100736.00;;;9.02
18713;BMP280;9485;49.386;8.674;2023-12-20T11:20:24;100722.69;;;9.02
18713;BMP280;9485;49.386;8.674;2023-12-20T11:25:50;100724.41;;;9.00
18713;BMP280;9485;49.386;8.674;2023-12-20T11:31:15;100714.13;;;8.97
18713;BMP280;9485;49.386;8.674;2023-12-20T11:36:36;100706.13;;;8.95
18713;BMP280;9485;49.386;8.674;2023-12-20T11:41:56;100701.59;;;8.98
18713;BMP280;9485;49.386;8.674;2023-12-20T11:47:19;100707.88;;;8.93
18713;BMP280;9485;49.386;8.674;2023-12-20T11:52:40;100710.69;;;8.93
18713;BMP280;9485;49.386;8.674;2023-12-20T11:58:00;100708.72;;;9.08
18713;BMP280;9485;49.386;8.674;2023-12-20T12:03:22;100699.38;;;9.25
18713;BMP280;9485;49.386;8.674;2023-12-20T12:08:43;100698.13;;;9.41
18713;BMP280;9485;49.386;8.674;2023-12-20T12:14:03;100699.88;;;9.38
18713;BMP280;9485;49.386;8.674;2023-12-20T12:19:26;100696.38;;;9.29
18713;BMP280;9485;49.386;8.674;2023-12-20T12:24:48;100707.69;;;9.20
18713;BMP280;9485;49.386;8.674;2023-12-20T12:30:10;100703.97;;;9.14
18713;BMP280;9485;49.386;8.674;2023-12-20T12:35:34;100693.75;;;9.02
18713;BMP280;9485;49.386;8.674;2023-12-20T12:40:54;100696.91;;;8.95
18713;BMP280;9485;49.386;8.674;2023-12-20T12:46:15;100699.31;;;8.88
18713;BMP280;9485;49.386;8.674;2023-12-20T12:51:37;100702.78;;;8.83
18713;BMP280;9485;49.386;8.674;2023-12-20T12:56:58;100711.22;;;8.83
18713;BMP280;9485;49.386;8.674;2023-12-20T13:02:18;100707.63;;;8.82
18713;BMP280;9485;49.386;8.674;2023-12-20T13:07:40;100709.66;;;8.82
18713;BMP280;9485;49.386;8.674;2023-12-20T13:13:04;100703.44;;;8.78
18713;BMP280;9485;49.386;8.674;2023-12-20T13:18:25;100693.59;;;8.73
18713;BMP280;9485;49.386;8.674;2023-12-20T13:23:47;100690.78;;;8.73
18713;BMP280;9485;49.386;8.674;2023-12-20T13:29:08;100699.09;;;8.68
18713;BMP280;9485;49.386;8.674;2023-12-20T13:34:29;100664.13;;;8.60
18713;BMP280;9485;49.386;8.674;2023-12-20T13:39:51;100642.59;;;8.48
18713;BMP280;9485;49.386;8.674;2023-12-20T13:45:11;100618.13;;;8.30
18713;BMP280;9485;49.386;8.674;2023-12-20T13:50:32;100603.63;;;8.23
18713;BMP280;9485;49.386;8.674;2023-12-20T13:55:53;100609.88;;;8.27
18713;BMP280;9485;49.386;8.674;2023-12-20T14:01:14;100618.44;;;8.32
18713;BMP280;9485;49.386;8.674;2023-12-20T14:06:35;100607.50;;;8.34
18713;BMP280;9485;49.386;8.674;2023-12-20T14:11:57;100602.63;;;8.35
18713;BMP280;9485;49.386;8.674;2023-12-20T14:17:17;100595.16;;;8.32
18713;BMP280;9485;49.386;8.674;2023-12-20T14:22:38;100612.03;;;8.32
18713;BMP280;9485;49.386;8.674;2023-12-20T14:28:05;100607.19;;;8.32
18713;BMP280;9485;49.386;8.674;2023-12-20T14:33:25;100620.94;;;8.30
18713;BMP280;9485;49.386;8.674;2023-12-20T14:38:46;100609.88;;;8.27
18713;BMP280;9485;49.386;8.674;2023-12-20T14:44:10;100595.34;;;8.28
18713;BMP280;9485;49.386;8.674;2023-12-20T14:49:31;100597.50;;;8.33
18713;BMP280;9485;49.386;8.674;2023-12-20T14:54:51;100601.97;;;8.40
18713;BMP280;9485;49.386;8.674;2023-12-20T15:00:14;100596.34;;;8.40
18713;BMP280;9485;49.386;8.674;2023-12-20T15:05:35;100601.97;;;8.40
18713;BMP280;9485;49.386;8.674;2023-12-20T15:10:57;100601.03;;;8.43
18713;BMP280;9485;49.386;8.674;2023-12-20T15:16:20;100598.53;;;8.45
18713;BMP280;9485;49.386;8.674;2023-12-20T15:21:40;100596.47;;;8.45
18713;BMP280;9485;49.386;8.674;2023-12-20T15:27:02;100589.97;;;8.39
18713;BMP280;9485;49.386;8.674;2023-12-20T15:32:24;100586.84;;;8.37
18713;BMP280;9485;49.386;8.674;2023-12-20T15:37:44;100601.88;;;8.34
18713;BMP280;9485;49.386;8.674;2023-12-20T15:43:05;100588.75;;;8.31
18713;BMP280;9485;49.386;8.674;2023-12-20T15:48:27;100577.81;;;8.33
18713;BMP280;9485;49.386;8.674;2023-12-20T15:53:48;100580.78;;;8.30
18713;BMP280;9485;49.386;8.674;2023-12-20T15:59:09;100576.06;;;8.36
18713;BMP280;9485;49.386;8.674;2023-12-20T16:04:31;100557.75;;;8.40
18713;BMP280;9485;49.386;8.674;2023-12-20T16:09:51;100572.13;;;8.42
18713;BMP280;9485;49.386;8.674;2023-12-20T16:15:12;100583.38;;;8.42
18713;BMP280;9485;49.386;8.674;2023-12-20T16:20:33;100582.59;;;8.42
18713;BMP280;9485;49.386;8.674;2023-12-20T16:25:54;100583.22;;;8.46
18713;BMP280;9485;49.386;8.674;2023-12-20T16:31:14;100588.84;;;8.46
18713;BMP280;9485;49.386;8.674;2023-12-20T16:36:51;100599.78;;;8.44
18713;BMP280;9485;49.386;8.674;2023-12-20T16:42:11;100599.78;;;8.44
18713;BMP280;9485;49.386;8.674;2023-12-20T16:47:32;100585.53;;;8.47
18713;BMP280;9485;49.386;8.674;2023-12-20T16:52:54;100575.84;;;8.48
18713;BMP280;9485;49.386;8.674;2023-12-20T16:58:14;100578.34;;;8.46
18713;BMP280;9485;49.386;8.674;2023-12-20T17:03:37;100576.28;;;8.47
18713;BMP280;9485;49.386;8.674;2023-12-20T17:08:59;100570.50;;;8.50
18713;BMP280;9485;49.386;8.674;2023-12-20T17:14:20;100567.69;;;8.50
18713;BMP280;9485;49.386;8.674;2023-12-20T17:19:40;100561.09;;;8.53
18713;BMP280;9485;49.386;8.674;2023-12-20T17:25:05;100554.97;;;8.55
18713;BMP280;9485;49.386;8.674;2023-12-20T17:30:25;100568.41;;;8.60
18713;BMP280;9485;49.386;8.674;2023-12-20T17:35:46;100555.50;;;8.68
18713;BMP280;9485;49.386;8.674;2023-12-20T17:41:08;100569.59;;;8.68
18713;BMP280;9485;49.386;8.674;2023-12-20T17:46:29;100572.59;;;8.64
18713;BMP280;9485;49.386;8.674;2023-12-20T17:51:50;100570.25;;;8.63
18713;BMP280;9485;49.386;8.674;2023-12-20T17:57:12;100556.31;;;8.68
18713;BMP280;9485;49.386;8.674;2023-12-20T18:02:32;100560.19;;;8.71
18713;BMP280;9485;49.386;8.674;2023-12-20T18:07:53;100555.81;;;8.70
18713;BMP280;9485;49.386;8.674;2023-12-20T18:13:15;100560.19;;;8.71
18713;BMP280;9485;49.386;8.674;2023-12-20T18:18:36;100562.69;;;8.69
18713;BMP280;9485;49.386;8.674;2023-12-20T18:23:56;100560.97;;;8.71
18713;BMP280;9485;49.386;8.674;2023-12-20T18:29:18;100550.97;;;8.70
18713;BMP280;9485;49.386;8.674;2023-12-20T18:34:39;100549.88;;;8.68
18713;BMP280;9485;49.386;8.674;2023-12-20T18:39:59;100538.81;;;8.64
18713;BMP280;9485;49.386;8.674;2023-12-20T18:45:21;100541.81;;;8.61
18713;BMP280;9485;49.386;8.674;2023-12-20T18:50:41;100532.78;;;8.57
18713;BMP280;9485;49.386;8.674;2023-12-20T18:56:02;100532.72;;;8.42
18713;BMP280;9485;49.386;8.674;2023-12-20T19:01:23;100529.97;;;8.33
18713;BMP280;9485;49.386;8.674;2023-12-20T19:06:44;100518.28;;;8.26
18713;BMP280;9485;49.386;8.674;2023-12-20T19:12:05;100522.19;;;8.28
18713;BMP280;9485;49.386;8.674;2023-12-20T19:17:27;100521.03;;;8.35
18713;BMP280;9485;49.386;8.674;2023-12-20T19:22:47;100517.28;;;8.38
18713;BMP280;9485;49.386;8.674;2023-12-20T19:28:08;100507.88;;;8.41
18713;BMP280;9485;49.386;8.674;2023-12-20T19:33:35;100507.41;;;8.42
18713;BMP280;9485;49.386;8.674;2023-12-20T19:38:56;100504.28;;;8.40
18713;BMP280;9485;49.386;8.674;2023-12-20T19:44:16;100504.41;;;8.46
18713;BMP280;9485;49.386;8.674;2023-12-20T19:49:40;100489.84;;;8.47
18713;BMP280;9485;49.386;8.674;2023-12-20T19:55:01;100484.03;;;8.51
18713;BMP280;9485;49.386;8.674;2023-12-20T20:00:22;100500.56;;;8.58
18713;BMP280;9485;49.386;8.674;2023-12-20T20:05:44;100495.22;;;8.60
18713;BMP280;9485;49.386;8.674;2023-12-20T20:11:04;100476.78;;;8.59
18713;BMP280;9485;49.386;8.674;2023-12-20T20:16:25;100481.34;;;8.56
18713;BMP280;9485;49.386;8.674;2023-12-20T20:21:46;100486.31;;;8.61
18713;BMP280;9485;49.386;8.674;2023-12-20T20:27:07;100491.63;;;8.59
18713;BMP280;9485;49.386;8.674;2023-12-20T20:32:27;100486.78;;;8.60
18713;BMP280;9485;49.386;8.674;2023-12-20T20:37:49;100475.72;;;8.56
18713;BMP280;9485;49.386;8.674;2023-12-20T20:43:10;100480.75;;;8.52
18713;BMP280;9485;49.386;8.674;2023-12-20T20:48:31;100465.59;;;8.50
18713;BMP280;9485;49.386;8.674;2023-12-20T20:53:53;100455.00;;;8.45
18713;BMP280;9485;49.386;8.674;2023-12-20T20:59:13;100448.69;;;8.35
18713;BMP280;9485;49.386;8.674;2023-12-20T21:04:33;100454.19;;;8.30
18713;BMP280;9485;49.386;8.674;2023-12-20T21:09:55;100450.75;;;8.26
18713;BMP280;9485;49.386;8.674;2023-12-20T21:15:16;100435.75;;;8.29
18713;BMP280;9485;49.386;8.674;2023-12-20T21:20:36;100420.66;;;8.18
18713;BMP280;9485;49.386;8.674;2023-12-20T21:25:58;100421.00;;;8.11
18713;BMP280;9485;49.386;8.674;2023-12-20T21:31:21;100407.78;;;8.02
18713;BMP280;9485;49.386;8.674;2023-12-20T21:36:42;100399.03;;;8.00
18713;BMP280;9485;49.386;8.674;2023-12-20T21:42:06;100396.00;;;7.89
18713;BMP280;9485;49.386;8.674;2023-12-20T21:47:27;100391.03;;;7.84
18713;BMP280;9485;49.386;8.674;2023-12-20T21:52:48;100382.31;;;7.82
18713;BMP280;9485;49.386;8.674;2023-12-20T21:58:10;100368.53;;;7.84
18713;BMP280;9485;49.386;8.674;2023-12-20T22:03:30;100361.22;;;7.87
18713;BMP280;9485;49.386;8.674;2023-12-20T22:08:51;100356.94;;;7.91
18713;BMP280;9485;49.386;8.674;2023-12-20T22:14:12;100352.09;;;7.92
18713;BMP280;9485;49.386;8.674;2023-12-20T22:19:33;100357.22;;;7.93
18713;BMP280;9485;49.386;8.674;2023-12-20T22:24:54;100365.09;;;7.89
18713;BMP280;9485;49.386;8.674;2023-12-20T22:30:16;100353.03;;;7.89
18713;BMP280;9485;49.386;8.674;2023-12-20T22:35:36;100348.63;;;7.97
18713;BMP280;9485;49.386;8.674;2023-12-20T22:40:57;100321.75;;;7.96
18713;BMP280;9485;49.386;8.674;2023-12-20T22:46:19;100318.31;;;8.01
18713;BMP280;9485;49.386;8.674;2023-12-20T22:51:39;100324.31;;;8.08
18713;BMP280;9485;49.386;8.674;2023-12-20T22:57:00;100305.88;;;8.07
18713;BMP280;9485;49.386;8.674;2023-12-20T23:02:22;100302.31;;;8.07
18713;BMP280;9485;49.386;8.674;2023-12-20T23:07:42;100307.13;;;8.06
18713;BMP280;9485;49.386;8.674;2023-12-20T23:13:03;100295.13;;;8.06
18713;BMP280;9485;49.386;8.674;2023-12-20T23:18:25;100278.59;;;7.84
18713;BMP280;9485;49.386;8.674;2023-12-20T23:23:46;100275.75;;;7.70
18713;BMP280;9485;49.386;8.674;2023-12-20T23:29:06;100293.78;;;7.78
18713;BMP280;9485;49.386;8.674;2023-12-20T23:34:28;100263.94;;;7.80
18713;BMP280;9485;49.386;8.674;2023-12-20T23:39:49;100243.13;;;7.87
18713;BMP280;9485;49.386;8.674;2023-12-20T23:45:09;100228.88;;;7.90
18713;BMP280;9485;49.386;8.674;2023-12-20T23:50:31;100221.03;;;7.94
18713;BMP280;9485;49.386;8.674;2023-12-20T23:55:52;100209.09;;;7.99
